Time;durP1;ratioP1;P1;durP2;ratioP2;P2;SDS_P1;SDS_P2;PMS_P1;PMS_P2;Temp;Humidity;BMP_temperature;BMP_pressure;BME280_temperature;BME280_humidity;BME280_pressure;Samples;Min_cycle;Max_cycle;Signal;HPM_P1;HPM_P2
2023/08/27 00:01:05;;;;;;;4.60;4.30;;;19.70;99.90;;;;;;4203477;28;20091;-57
2023/08/27 00:03:25;;;;;;;4.22;4.03;;;19.80;99.90;;;;;;4200937;28;20263;-57
2023/08/27 00:05:46;;;;;;;5.32;5.13;;;19.70;99.90;;;;;;4202592;28;20047;-58
2023/08/27 00:08:06;;;;;;;5.18;4.88;;;19.80;99.90;;;;;;4203250;28;20043;-57
2023/08/27 00:10:27;;;;;;;5.45;5.15;;;19.50;99.90;;;;;;4204040;28;20086;-58
2023/08/27 00:12:47;;;;;;;5.32;5.00;;;19.30;99.90;;;;;;4203763;28;20248;-57
2023/08/27 00:15:07;;;;;;;4.90;4.65;;;19.10;99.90;;;;;;4201909;28;20056;-57
2023/08/27 00:17:27;;;;;;;5.75;5.55;;;19.00;99.90;;;;;;4203425;28;20091;-57
2023/08/27 00:19:47;;;;;;;5.85;5.65;;;18.90;99.90;;;;;;4196434;28;20055;-58
2023/08/27 00:22:08;;;;;;;5.35;4.95;;;19.00;99.90;;;;;;4197949;28;20287;-58
2023/08/27 00:24:28;;;;;;;4.85;4.60;;;19.20;99.90;;;;;;4203711;28;20053;-58
2023/08/27 00:26:48;;;;;;;6.32;5.95;;;19.40;99.90;;;;;;4197233;28;20322;-58
2023/08/27 00:29:07;;;;;;;7.93;5.88;;;19.40;99.90;;;;;;4201122;28;20043;-57
2023/08/27 00:31:27;;;;;;;5.72;5.63;;;19.20;99.90;;;;;;4203778;28;20055;-57
2023/08/27 00:33:48;;;;;;;5.20;5.10;;;18.90;99.90;;;;;;4202457;28;20415;-57
2023/08/27 00:36:07;;;;;;;6.13;5.72;;;18.80;99.90;;;;;;4202061;28;20044;-58
2023/08/27 00:38:28;;;;;;;6.47;6.18;;;18.80;99.90;;;;;;4201584;28;20047;-58
2023/08/27 00:40:48;;;;;;;6.13;5.82;;;18.90;99.90;;;;;;4204823;28;20227;-58
2023/08/27 00:43:08;;;;;;;6.38;6.07;;;18.70;99.90;;;;;;4196775;28;20087;-58
2023/08/27 00:45:29;;;;;;;5.97;5.47;;;18.70;99.90;;;;;;4198198;28;20407;-58
2023/08/27 00:47:49;;;;;;;5.75;5.53;;;18.60;99.90;;;;;;4203822;28;20067;-57
2023/08/27 00:50:11;;;;;;;5.22;5.13;;;18.60;99.90;;;;;;4198177;28;20048;-57
2023/08/27 00:52:30;;;;;;;5.93;5.63;;;18.70;99.90;;;;;;4205559;28;20097;-57
2023/08/27 00:54:53;;;;;;;5.70;5.45;;;18.70;99.90;;;;;;4205669;28;20299;-57
2023/08/27 00:57:14;;;;;;;;;;;18.70;99.90;;;;;;4204195;28;20062;-57
2023/08/27 00:59:35;;;;;;;6.30;5.90;;;18.70;99.90;;;;;;4204280;28;19924;-58
2023/08/27 01:01:55;;;;;;;9.68;5.47;;;18.70;99.90;;;;;;4201171;28;20235;-62
2023/08/27 01:04:15;;;;;;;6.38;6.15;;;18.70;99.90;;;;;;4199825;28;20382;-61
2023/08/27 01:06:35;;;;;;;6.32;6.13;;;18.70;99.90;;;;;;4204734;28;20240;-61
2023/08/27 01:09:18;;;;;;;7.63;6.90;;;18.40;99.90;;;;;;4192473;28;20236;-61
2023/08/27 01:11:54;;;;;;;5.85;5.60;;;18.40;99.90;;;;;;4198442;28;20044;-61
2023/08/27 01:14:16;;;;;;;6.15;5.95;;;18.40;99.90;;;;;;4197212;28;20059;-61
2023/08/27 01:16:38;;;;;;;7.03;6.72;;;18.20;99.90;;;;;;4196757;28;20059;-61
2023/08/27 01:19:00;;;;;;;6.45;6.15;;;18.10;99.90;;;;;;4202795;28;20052;-61
2023/08/27 01:21:22;;;;;;;6.50;6.30;;;18.00;99.90;;;;;;4197958;28;20087;-61
2023/08/27 01:23:41;;;;;;;6.87;6.43;;;17.90;99.90;;;;;;4197701;28;20048;-61
2023/08/27 01:26:02;;;;;;;6.32;6.13;;;17.80;99.90;;;;;;4199160;28;20277;-61
2023/08/27 01:28:33;;;;;;;7.18;6.93;;;17.70;99.90;;;;;;4198200;28;20373;-61
2023/08/27 01:31:03;;;;;;;6.38;6.25;;;17.70;99.90;;;;;;4198842;28;20051;-61
2023/08/27 01:33:28;;;;;;;5.90;5.60;;;17.70;99.90;;;;;;4194739;28;20108;-61
2023/08/27 01:35:48;;;;;;;6.75;6.35;;;17.80;99.90;;;;;;4194694;28;20079;-61
2023/08/27 01:38:08;;;;;;;7.32;6.63;;;17.90;99.90;;;;;;4198461;28;20067;-61
2023/08/27 01:40:28;;;;;;;5.78;5.68;;;17.90;99.90;;;;;;4195647;28;20055;-61
2023/08/27 01:42:48;;;;;;;7.03;6.72;;;17.80;99.90;;;;;;4199444;28;20072;-61
2023/08/27 01:45:09;;;;;;;6.68;6.38;;;17.80;99.90;;;;;;4199331;28;20101;-61
2023/08/27 01:47:30;;;;;;;6.20;6.00;;;17.70;99.90;;;;;;4201407;28;20048;-61
2023/08/27 01:49:50;;;;;;;7.15;6.78;;;17.60;99.90;;;;;;4202594;28;20232;-61
2023/08/27 01:52:10;;;;;;;5.70;5.47;;;17.60;99.90;;;;;;4202875;28;20116;-61
2023/08/27 01:54:33;;;;;;;7.93;7.50;;;17.70;99.90;;;;;;4203332;28;20079;-61
2023/08/27 01:56:53;;;;;;;;;;;17.60;99.90;;;;;;4198555;28;20120;-61
2023/08/27 01:59:13;;;;;;;7.35;7.15;;;17.70;99.90;;;;;;4206720;28;19923;-61
2023/08/27 02:01:33;;;;;;;6.35;6.15;;;17.50;99.90;;;;;;4206692;28;20050;-61
2023/08/27 02:03:53;;;;;;;7.03;6.72;;;17.40;99.90;;;;;;4198763;28;20056;-61
2023/08/27 02:06:12;;;;;;;7.55;7.35;;;17.60;99.90;;;;;;4201903;28;20059;-61
2023/08/27 02:08:32;;;;;;;8.55;6.53;;;17.60;99.90;;;;;;4202186;28;20047;-61
2023/08/27 02:10:53;;;;;;;6.43;6.13;;;17.50;99.90;;;;;;4201440;28;20297;-61
2023/08/27 02:13:13;;;;;;;6.43;6.13;;;17.50;99.90;;;;;;4202859;28;20264;-61
2023/08/27 02:15:33;;;;;;;7.10;6.88;;;17.60;99.90;;;;;;4204113;28;20417;-61
2023/08/27 02:17:52;;;;;;;7.15;6.75;;;17.70;99.90;;;;;;4204270;28;20051;-61
2023/08/27 02:20:13;;;;;;;7.32;7.03;;;17.70;99.90;;;;;;4205407;28;20055;-61
2023/08/27 02:22:33;;;;;;;6.20;6.10;;;17.60;99.90;;;;;;4207547;28;20366;-61
2023/08/27 02:24:53;;;;;;;6.03;5.93;;;17.60;99.90;;;;;;4207030;28;20051;-61
2023/08/27 02:27:13;;;;;;;6.82;6.63;;;17.50;99.90;;;;;;4198003;28;20075;-61
2023/08/27 02:29:33;;;;;;;7.10;6.90;;;17.40;99.90;;;;;;4198154;28;20052;-61
2023/08/27 02:31:53;;;;;;;7.50;7.20;;;17.10;99.90;;;;;;4204224;28;20244;-61
2023/08/27 02:34:13;;;;;;;7.43;7.22;;;17.10;99.90;;;;;;4199236;28;20105;-61
2023/08/27 02:36:33;;;;;;;7.38;7.18;;;17.10;99.90;;;;;;4202558;28;20059;-61
2023/08/27 02:38:54;;;;;;;7.75;7.18;;;17.10;99.90;;;;;;4203921;28;20055;-61
2023/08/27 02:41:14;;;;;;;7.28;6.80;;;17.20;99.90;;;;;;4203501;28;20047;-61
2023/08/27 02:43:34;;;;;;;7.63;7.22;;;17.30;99.90;;;;;;4205157;28;20066;-61
2023/08/27 02:45:54;;;;;;;6.78;6.60;;;17.20;99.90;;;;;;4205783;28;20054;-61
2023/08/27 02:48:14;;;;;;;7.53;7.32;;;17.00;99.90;;;;;;4207152;28;20090;-62
2023/08/27 02:50:34;;;;;;;6.65;6.25;;;16.90;99.90;;;;;;4202820;28;20052;-61
2023/08/27 02:52:54;;;;;;;6.68;6.53;;;16.80;99.90;;;;;;4206955;28;20055;-61
2023/08/27 02:55:15;;;;;;;6.90;6.68;;;16.80;99.90;;;;;;4206683;28;20093;-61
2023/08/27 02:57:36;;;;;;;8.65;8.07;;;16.90;99.90;;;;;;4196737;28;20106;-61
2023/08/27 02:59:56;;;;;;;6.50;6.05;;;16.80;99.90;;;;;;4195599;28;20055;-61
2023/08/27 03:02:16;;;;;;;7.35;6.97;;;16.80;99.90;;;;;;4195591;28;20370;-61
2023/08/27 03:04:36;;;;;;;6.05;5.82;;;16.80;99.90;;;;;;4206093;28;20082;-61
2023/08/27 03:06:56;;;;;;;6.97;6.72;;;16.70;99.90;;;;;;4206037;28;20295;-61
2023/08/27 03:09:16;;;;;;;7.03;6.93;;;16.90;99.90;;;;;;4194254;28;20052;-61
2023/08/27 03:11:36;;;;;;;8.70;8.13;;;16.70;99.90;;;;;;4205818;28;20058;-61
2023/08/27 03:13:57;;;;;;;7.47;6.88;;;16.80;99.90;;;;;;4203217;28;20056;-61
2023/08/27 03:16:16;;;;;;;8.18;7.68;;;16.90;99.90;;;;;;4193593;28;20036;-61
2023/08/27 03:18:37;;;;;;;7.70;7.35;;;16.90;99.90;;;;;;4200369;28;20052;-61
2023/08/27 03:20:57;;;;;;;7.13;7.00;;;16.80;99.90;;;;;;4198067;28;20052;-61
2023/08/27 03:23:18;;;;;;;7.72;7.40;;;16.90;99.90;;;;;;4192463;28;20052;-61
2023/08/27 03:25:38;;;;;;;5.60;5.40;;;17.00;99.90;;;;;;4197263;28;20056;-61
2023/08/27 03:27:58;;;;;;;7.00;6.70;;;17.00;99.90;;;;;;4206219;28;20055;-61
2023/08/27 03:30:18;;;;;;;7.72;7.32;;;16.90;99.90;;;;;;4199037;28;20052;-62
2023/08/27 03:32:39;;;;;;;7.82;7.63;;;16.90;99.90;;;;;;4196672;28;20047;-62
2023/08/27 03:34:59;;;;;;;7.28;6.97;;;16.90;99.90;;;;;;4191291;28;20095;-61
2023/08/27 03:37:18;;;;;;;6.95;6.85;;;17.00;99.90;;;;;;4203095;28;20062;-61
2023/08/27 03:39:38;;;;;;;6.55;6.35;;;17.00;99.90;;;;;;4192594;28;20071;-62
2023/08/27 03:41:58;;;;;;;6.95;6.65;;;17.00;99.90;;;;;;4198095;28;20232;-61
2023/08/27 03:44:17;;;;;;;6.18;5.97;;;16.90;99.90;;;;;;4203526;28;20054;-61
2023/08/27 03:46:40;;;;;;;7.80;7.05;;;16.80;99.90;;;;;;4193590;28;20044;-62
2023/08/27 03:49:00;;;;;;;6.82;6.60;;;16.70;99.90;;;;;;4198013;28;20055;-61
2023/08/27 03:51:20;;;;;;;7.68;7.35;;;16.60;99.90;;;;;;4198901;28;20055;-61
2023/08/27 03:53:40;;;;;;;7.25;6.97;;;16.50;99.90;;;;;;4195689;28;20059;-61
2023/08/27 03:56:04;;;;;;;9.18;8.65;;;16.40;99.90;;;;;;4197863;28;20087;-61
2023/08/27 03:58:24;;;;;;;7.72;7.53;;;16.30;99.90;;;;;;4205583;28;20075;-61
2023/08/27 04:00:48;;;;;;;7.88;7.57;;;16.30;99.90;;;;;;4200194;28;20090;-61
2023/08/27 04:03:08;;;;;;;7.97;7.45;;;16.40;99.90;;;;;;4195505;28;20056;-61
2023/08/27 04:05:28;;;;;;;6.90;6.50;;;16.20;99.90;;;;;;4196381;28;20055;-61
2023/08/27 04:07:48;;;;;;;7.63;7.30;;;16.00;99.90;;;;;;4200865;28;20047;-61
2023/08/27 04:10:08;;;;;;;8.30;8.07;;;16.20;99.90;;;;;;4196638;28;20299;-60
2023/08/27 04:12:28;;;;;;;7.40;7.20;;;16.40;99.90;;;;;;4198128;28;20105;-61
2023/08/27 04:14:48;;;;;;;8.10;7.75;;;16.30;99.90;;;;;;4201850;28;20059;-61
2023/08/27 04:17:08;;;;;;;7.05;6.85;;;16.20;99.90;;;;;;4194985;28;20112;-61
2023/08/27 04:19:28;;;;;;;7.30;7.10;;;16.20;99.90;;;;;;4198379;28;20063;-61
2023/08/27 04:21:48;;;;;;;7.65;7.40;;;16.30;99.90;;;;;;4199298;28;20043;-61
2023/08/27 04:24:08;;;;;;;7.55;7.35;;;16.50;99.90;;;;;;4197736;28;20067;-61
2023/08/27 04:26:28;;;;;;;7.75;7.35;;;16.40;99.90;;;;;;4196554;28;20056;-61
2023/08/27 04:28:50;;;;;;;8.30;7.97;;;16.20;99.90;;;;;;4203166;28;20043;-61
2023/08/27 04:31:10;;;;;;;7.15;6.95;;;16.10;99.90;;;;;;4196692;28;20090;-60
2023/08/27 04:33:30;;;;;;;8.63;8.32;;;16.20;99.90;;;;;;4198820;28;20249;-61
2023/08/27 04:35:52;;;;;;;6.85;6.60;;;16.40;99.90;;;;;;4198076;28;20087;-61
2023/08/27 04:38:12;;;;;;;6.90;6.68;;;16.40;99.90;;;;;;4202137;28;20043;-61
2023/08/27 04:40:33;;;;;;;7.38;7.00;;;16.50;99.90;;;;;;4196741;28;20059;-61
2023/08/27 04:42:53;;;;;;;8.65;8.25;;;16.40;99.90;;;;;;4197744;28;20043;-61
2023/08/27 04:45:12;;;;;;;7.57;7.38;;;16.40;99.90;;;;;;4202124;28;20094;-61
2023/08/27 04:47:32;;;;;;;7.80;7.28;;;16.30;99.90;;;;;;4199115;28;20059;-61
2023/08/27 04:49:53;;;;;;;8.15;7.85;;;16.20;99.90;;;;;;4197971;28;20087;-61
2023/08/27 04:52:14;;;;;;;8.77;8.52;;;16.10;99.90;;;;;;4203697;28;20260;-61
2023/08/27 04:54:51;;;;;;;8.30;7.93;;;16.10;99.90;;;;;;4195052;28;20067;-61
2023/08/27 04:57:11;;;;;;;8.38;7.57;;;16.10;99.90;;;;;;4198026;28;20163;-61
2023/08/27 04:59:31;;;;;;;8.15;7.70;;;16.10;99.90;;;;;;4196098;28;20099;-61
2023/08/27 05:01:51;;;;;;;8.85;8.38;;;16.10;99.90;;;;;;4198318;28;20051;-61
2023/08/27 05:04:12;;;;;;;8.23;7.97;;;16.00;99.90;;;;;;4197637;28;20239;-61
2023/08/27 05:06:31;;;;;;;7.75;7.55;;;16.00;99.90;;;;;;4198785;28;20048;-61
2023/08/27 05:08:52;;;;;;;9.75;9.25;;;16.00;99.90;;;;;;4202837;28;20047;-61
2023/08/27 05:11:12;;;;;;;8.35;7.13;;;16.10;99.90;;;;;;4199170;28;20047;-61
2023/08/27 05:13:31;;;;;;;8.23;7.80;;;16.10;99.90;;;;;;4199210;28;20281;-61
2023/08/27 05:15:52;;;;;;;8.07;7.68;;;15.90;99.90;;;;;;4201533;28;20408;-61
2023/08/27 05:18:12;;;;;;;8.23;7.93;;;15.90;99.90;;;;;;4200432;28;20089;-61
2023/08/27 05:20:32;;;;;;;9.23;8.75;;;16.00;99.90;;;;;;4198468;28;20051;-60
2023/08/27 05:22:52;;;;;;;8.55;7.88;;;16.10;99.90;;;;;;4193331;28;20099;-61
2023/08/27 05:25:12;;;;;;;8.45;8.05;;;16.20;99.90;;;;;;4195968;28;20377;-60
2023/08/27 05:27:32;;;;;;;9.10;8.60;;;16.30;99.90;;;;;;4202116;28;20060;-60
2023/08/27 05:29:52;;;;;;;9.18;8.38;;;16.40;99.90;;;;;;4195137;28;20035;-60
2023/08/27 05:32:12;;;;;;;8.52;8.23;;;16.60;99.90;;;;;;4199633;28;20048;-61
2023/08/27 05:34:33;;;;;;;6.85;6.55;;;16.70;99.90;;;;;;4199042;28;20199;-60
2023/08/27 05:36:53;;;;;;;6.97;6.78;;;16.80;99.90;;;;;;4200141;28;20407;-60
2023/08/27 05:39:14;;;;;;;6.43;6.18;;;16.90;99.90;;;;;;4202044;28;20044;-61
2023/08/27 05:41:33;;;;;;;7.07;6.60;;;16.90;99.90;;;;;;4201283;28;20055;-61
2023/08/27 05:43:54;;;;;;;6.38;5.93;;;17.10;99.90;;;;;;4201509;28;20090;-61
2023/08/27 05:46:14;;;;;;;6.82;6.63;;;17.20;99.90;;;;;;4194860;28;20109;-61
2023/08/27 05:48:34;;;;;;;7.15;6.70;;;17.20;99.90;;;;;;4192848;28;20056;-61
2023/08/27 05:50:53;;;;;;;7.22;6.80;;;17.00;99.90;;;;;;4205068;28;20293;-61
2023/08/27 05:53:15;;;;;;;7.45;7.22;;;16.80;99.90;;;;;;4194253;28;20078;-61
2023/08/27 05:55:35;;;;;;;8.15;7.82;;;16.80;99.90;;;;;;4196699;28;20373;-61
2023/08/27 05:57:55;;;;;;;8.02;7.55;;;16.70;99.90;;;;;;4202047;28;20375;-61
2023/08/27 06:00:15;;;;;;;6.88;6.57;;;16.70;99.90;;;;;;4197835;28;20068;-61
2023/08/27 06:02:35;;;;;;;7.38;7.13;;;16.70;99.90;;;;;;4199013;28;20047;-61
2023/08/27 06:04:55;;;;;;;7.45;7.25;;;16.70;99.90;;;;;;4200693;28;20071;-61
2023/08/27 06:07:15;;;;;;;7.82;7.47;;;16.80;99.90;;;;;;4202102;28;20043;-61
2023/08/27 06:09:35;;;;;;;8.57;8.23;;;16.80;99.90;;;;;;4201535;28;20056;-62
2023/08/27 06:11:55;;;;;;;7.97;7.68;;;16.90;99.90;;;;;;4204872;28;20079;-61
2023/08/27 06:14:15;;;;;;;8.18;7.72;;;17.10;99.90;;;;;;4204762;28;20079;-61
2023/08/27 06:16:35;;;;;;;7.60;7.22;;;17.20;99.90;;;;;;4198555;28;20044;-61
2023/08/27 06:18:55;;;;;;;7.13;6.72;;;17.40;99.90;;;;;;4194991;28;20047;-62
2023/08/27 06:21:17;;;;;;;8.65;7.78;;;17.50;99.90;;;;;;4204311;28;20051;-61
2023/08/27 06:23:37;;;;;;;7.97;7.50;;;17.60;99.90;;;;;;4198187;28;20052;-61
2023/08/27 06:26:04;;;;;;;7.95;7.38;;;17.70;99.90;;;;;;4198589;28;20048;-61
2023/08/27 06:28:24;;;;;;;7.15;6.68;;;17.90;99.90;;;;;;4200873;28;20244;-61
2023/08/27 06:30:43;;;;;;;8.10;7.60;;;18.00;99.90;;;;;;4201594;28;20078;-61
2023/08/27 06:33:04;;;;;;;7.15;6.78;;;18.20;99.90;;;;;;4205241;28;20051;-61
2023/08/27 06:35:24;;;;;;;10.13;6.53;;;18.30;99.90;;;;;;4207035;28;20086;-61
2023/08/27 06:37:44;;;;;;;7.80;7.22;;;18.40;99.90;;;;;;4199340;28;20075;-61
2023/08/27 06:40:04;;;;;;;6.65;6.30;;;18.50;99.90;;;;;;4201450;28;20052;-61
2023/08/27 06:42:24;;;;;;;6.10;5.90;;;18.60;99.90;;;;;;4195896;28;20056;-61
2023/08/27 06:44:43;;;;;;;6.90;6.45;;;18.80;99.90;;;;;;4198719;28;20056;-61
2023/08/27 06:47:03;;;;;;;6.30;6.20;;;18.90;99.90;;;;;;4196893;28;20052;-61
2023/08/27 06:49:24;;;;;;;5.88;5.72;;;19.00;99.90;;;;;;4199455;28;20047;-61
2023/08/27 06:51:44;;;;;;;6.32;5.18;;;19.10;99.90;;;;;;4196903;28;20060;-61
2023/08/27 06:54:04;;;;;;;5.05;4.85;;;19.40;99.90;;;;;;4205756;28;20362;-61
2023/08/27 06:56:26;;;;;;;4.50;4.30;;;19.50;99.90;;;;;;4203258;28;20063;-61
2023/08/27 06:58:46;;;;;;;4.45;4.35;;;19.80;99.90;;;;;;4178200;28;20166;-61
2023/08/27 07:01:06;;;;;;;5.25;4.75;;;19.70;99.90;;;;;;4206105;28;20046;-61
2023/08/27 07:03:26;;;;;;;4.63;4.43;;;20.00;99.90;;;;;;4203994;28;20043;-61
2023/08/27 07:05:46;;;;;;;4.72;4.43;;;20.10;99.90;;;;;;4193439;28;20286;-62
2023/08/27 07:08:06;;;;;;;4.13;3.90;;;20.20;99.90;;;;;;4198188;28;20371;-61
2023/08/27 07:10:26;;;;;;;3.97;3.78;;;20.60;99.90;;;;;;4201145;28;20094;-61
2023/08/27 07:12:59;;;;;;;4.30;4.10;;;20.70;99.90;;;;;;4195644;28;20048;-61
2023/08/27 07:15:19;;;;;;;4.50;4.40;;;20.90;99.90;;;;;;4198210;28;20272;-61
2023/08/27 07:17:41;;;;;;;4.70;4.30;;;21.10;99.90;;;;;;4207105;28;20039;-61
2023/08/27 07:20:03;;;;;;;4.40;3.95;;;21.30;99.90;;;;;;4201253;28;20067;-61
2023/08/27 07:22:23;;;;;;;;;;;21.60;99.90;;;;;;4195959;28;20255;-61
2023/08/27 07:24:43;;;;;;;4.95;4.53;;;21.80;99.90;;;;;;4205483;28;19946;-61
2023/08/27 07:27:04;;;;;;;4.97;4.63;;;21.80;99.90;;;;;;4201742;28;20044;-61
2023/08/27 07:29:24;;;;;;;3.92;3.78;;;22.10;99.90;;;;;;4196250;28;20063;-61
2023/08/27 07:31:45;;;;;;;4.03;3.88;;;22.20;98.80;;;;;;4197820;28;20076;-61
2023/08/27 07:34:05;;;;;;;3.05;2.95;;;22.50;99.00;;;;;;4203189;28;20078;-61
2023/08/27 07:36:25;;;;;;;3.83;3.63;;;22.70;98.60;;;;;;4194521;28;20073;-62
2023/08/27 07:38:45;;;;;;;4.25;4.05;;;22.60;98.20;;;;;;4199543;28;20247;-61
2023/08/27 07:41:05;;;;;;;3.25;3.15;;;22.60;98.30;;;;;;4199273;28;20056;-60
2023/08/27 07:43:25;;;;;;;4.45;4.35;;;22.80;98.40;;;;;;4196635;28;20458;-61
2023/08/27 07:45:45;;;;;;;3.35;2.97;;;23.00;97.60;;;;;;4196066;28;20046;-61
2023/08/27 07:48:04;;;;;;;7.15;3.83;;;23.10;97.30;;;;;;4205498;28;20071;-61
2023/08/27 07:50:26;;;;;;;3.50;3.40;;;23.20;96.70;;;;;;4202805;28;20076;-60
2023/08/27 07:52:46;;;;;;;3.60;3.28;;;23.20;97.30;;;;;;4197031;28;20087;-61
2023/08/27 07:55:06;;;;;;;2.85;2.75;;;23.20;96.70;;;;;;4195585;28;20064;-61
2023/08/27 07:57:26;;;;;;;4.40;4.00;;;23.30;96.60;;;;;;4199792;28;20279;-61
2023/08/27 07:59:46;;;;;;;3.17;2.97;;;23.20;96.60;;;;;;4195068;28;20279;-61
2023/08/27 08:02:06;;;;;;;4.13;3.92;;;23.40;96.80;;;;;;4197605;28;20090;-61
2023/08/27 08:04:25;;;;;;;3.58;3.38;;;23.50;96.00;;;;;;4202586;28;20039;-61
2023/08/27 08:06:45;;;;;;;3.42;3.22;;;23.70;96.70;;;;;;4197392;28;20048;-61
2023/08/27 08:09:05;;;;;;;3.92;3.65;;;23.90;95.70;;;;;;4197005;28;20051;-61
2023/08/27 08:11:25;;;;;;;3.97;3.85;;;24.10;95.80;;;;;;4200019;28;20066;-60
2023/08/27 08:13:46;;;;;;;3.97;3.88;;;24.20;95.60;;;;;;4201605;28;20064;-61
2023/08/27 08:16:06;;;;;;;4.68;4.50;;;24.50;95.20;;;;;;4198370;28;20067;-61
2023/08/27 08:18:26;;;;;;;33.53;28.00;;;24.80;95.00;;;;;;4197976;28;20108;-61
2023/08/27 08:20:47;;;;;;;5.55;5.25;;;24.90;95.00;;;;;;4196747;28;20323;-61
2023/08/27 08:23:07;;;;;;;5.15;3.67;;;25.00;95.10;;;;;;4202532;28;20235;-61
2023/08/27 08:25:27;;;;;;;4.18;3.83;;;25.30;95.00;;;;;;4195194;28;20108;-61
2023/08/27 08:27:47;;;;;;;13.15;12.27;;;25.40;95.30;;;;;;4202113;28;20079;-61
2023/08/27 08:30:07;;;;;;;3.88;3.75;;;25.60;94.30;;;;;;4198580;28;20055;-61
2023/08/27 08:32:27;;;;;;;2.97;2.88;;;25.70;94.10;;;;;;4198914;28;20059;-61
2023/08/27 08:34:47;;;;;;;3.47;3.38;;;25.90;94.00;;;;;;4201503;28;20262;-61
2023/08/27 08:37:07;;;;;;;2.25;2.15;;;26.00;94.30;;;;;;4199324;28;20171;-61
2023/08/27 08:39:27;;;;;;;2.65;2.45;;;26.30;93.20;;;;;;4199145;28;20108;-61
2023/08/27 08:41:57;;;;;;;2.92;2.83;;;26.50;93.60;;;;;;4200387;28;20047;-61
2023/08/27 08:44:22;;;;;;;1.83;1.80;;;26.60;93.00;;;;;;4196085;28;20048;-61
2023/08/27 08:46:44;;;;;;;2.33;2.10;;;26.70;93.00;;;;;;4204419;28;20106;-61
2023/08/27 08:49:14;;;;;;;2.08;1.98;;;26.90;93.00;;;;;;4195235;28;20044;-61
2023/08/27 08:51:34;;;;;;;2.10;2.00;;;27.00;92.90;;;;;;4198652;28;20044;-60
2023/08/27 08:54:01;;;;;;;2.30;2.20;;;26.80;93.20;;;;;;4199796;28;20249;-60
2023/08/27 08:56:31;;;;;;;7.50;2.38;;;26.90;92.80;;;;;;4197611;28;20048;-61
2023/08/27 08:58:58;;;;;;;2.30;2.20;;;27.00;93.50;;;;;;4202810;28;20039;-61
2023/08/27 09:01:20;;;;;;;1.60;1.50;;;27.20;93.50;;;;;;4199700;28;20362;-60
2023/08/27 09:03:41;;;;;;;2.00;2.00;;;27.30;92.80;;;;;;4199203;28;20398;-61
2023/08/27 09:06:01;;;;;;;2.30;2.03;;;27.20;92.60;;;;;;4200646;28;20046;-61
2023/08/27 09:08:22;;;;;;;2.20;2.10;;;27.30;92.30;;;;;;4188684;28;20106;-61
2023/08/27 09:10:43;;;;;;;3.13;2.03;;;27.30;92.30;;;;;;4204800;28;20048;-60
2023/08/27 09:13:05;;;;;;;2.22;2.13;;;27.40;92.40;;;;;;4193300;28;20087;-60
2023/08/27 09:15:25;;;;;;;2.47;2.38;;;27.60;92.30;;;;;;4189652;28;20100;-61
2023/08/27 09:17:47;;;;;;;1.98;1.92;;;27.60;91.70;;;;;;4201944;28;20139;-60
2023/08/27 09:20:07;;;;;;;1.75;1.75;;;27.80;91.40;;;;;;4197050;28;20063;-60
2023/08/27 09:22:27;;;;;;;2.35;1.83;;;27.60;90.90;;;;;;4199081;28;20409;-60
2023/08/27 09:24:47;;;;;;;2.00;1.95;;;27.50;90.10;;;;;;4198721;28;20112;-60
2023/08/27 09:27:08;;;;;;;1.85;1.75;;;27.80;91.40;;;;;;4201148;28;20267;-60
2023/08/27 09:29:30;;;;;;;1.52;1.42;;;27.70;90.30;;;;;;4201961;28;20110;-60
2023/08/27 09:31:55;;;;;;;1.90;1.80;;;27.90;90.20;;;;;;4201085;28;20228;-60
2023/08/27 09:34:18;;;;;;;1.95;1.85;;;28.30;90.20;;;;;;4202213;28;20059;-61
2023/08/27 09:36:39;;;;;;;2.25;1.50;;;28.20;89.00;;;;;;4196014;28;20063;-60
2023/08/27 09:39:10;;;;;;;2.22;2.03;;;28.20;87.90;;;;;;4204822;28;20055;-60
2023/08/27 09:41:30;;;;;;;3.40;1.30;;;28.30;89.10;;;;;;4202946;28;20120;-60
2023/08/27 09:43:54;;;;;;;3.10;1.48;;;28.50;86.30;;;;;;4194775;28;20048;-60
2023/08/27 09:46:17;;;;;;;1.73;1.73;;;28.70;88.50;;;;;;4203656;28;20095;-60
2023/08/27 09:48:37;;;;;;;4.10;1.70;;;28.90;85.80;;;;;;4199551;28;20046;-61
2023/08/27 09:51:05;;;;;;;3.08;1.60;;;29.20;86.00;;;;;;4199352;28;20083;-61
2023/08/27 09:53:25;;;;;;;2.15;2.03;;;29.30;84.20;;;;;;4202322;28;20091;-60
2023/08/27 09:55:50;;;;;;;1.95;1.38;;;29.20;84.40;;;;;;4202087;28;20116;-60
2023/08/27 09:58:12;;;;;;;1.48;1.42;;;29.30;83.80;;;;;;4202741;28;20123;-60
2023/08/27 10:00:33;;;;;;;1.50;1.48;;;28.90;84.70;;;;;;4197032;28;20051;-60
2023/08/27 10:02:54;;;;;;;1.80;1.70;;;29.00;84.30;;;;;;4203300;28;20067;-61
2023/08/27 10:05:13;;;;;;;2.30;2.00;;;29.20;85.20;;;;;;4203787;28;20044;-61
2023/08/27 10:07:36;;;;;;;;;;;29.10;84.00;;;;;;4196843;28;20236;-61
2023/08/27 10:09:55;;;;;;;3.60;1.98;;;29.20;85.30;;;;;;4201343;28;19947;-60
2023/08/27 10:12:17;;;;;;;1.45;1.35;;;29.20;82.90;;;;;;4205705;28;20039;-61
2023/08/27 10:14:42;;;;;;;1.88;1.77;;;29.20;81.10;;;;;;4200480;28;20067;-61
2023/08/27 10:17:03;;;;;;;3.25;1.15;;;29.20;81.80;;;;;;4194367;28;20370;-61
2023/08/27 10:19:23;;;;;;;1.08;1.08;;;29.20;81.30;;;;;;4206289;28;20085;-60
2023/08/27 10:21:44;;;;;;;2.25;1.27;;;29.30;79.90;;;;;;4206926;28;20139;-60
2023/08/27 10:24:05;;;;;;;4.32;1.90;;;29.40;78.80;;;;;;4199369;28;20059;-59
2023/08/27 10:26:25;;;;;;;2.35;1.13;;;29.70;77.70;;;;;;4196738;28;20157;-60
2023/08/27 10:28:46;;;;;;;2.40;1.20;;;30.10;76.80;;;;;;4200909;28;20279;-60
2023/08/27 10:31:07;;;;;;;3.53;1.20;;;30.50;75.60;;;;;;4195348;28;20040;-60
2023/08/27 10:33:27;;;;;;;3.05;1.40;;;30.60;74.90;;;;;;4195001;28;20139;-60
2023/08/27 10:35:51;;;;;;;1.50;1.10;;;30.40;75.80;;;;;;4200878;28;20359;-60
2023/08/27 10:38:15;;;;;;;2.78;1.60;;;30.10;77.10;;;;;;4205982;28;20051;-60
2023/08/27 10:40:36;;;;;;;1.98;1.35;;;30.60;78.10;;;;;;4195922;28;20044;-60
2023/08/27 10:43:09;;;;;;;7.75;1.45;;;30.50;74.30;;;;;;4197745;28;20350;-60
2023/08/27 10:45:35;;;;;;;2.05;1.65;;;30.70;73.60;;;;;;4206390;28;20116;-60
2023/08/27 10:48:10;;;;;;;1.35;1.10;;;30.80;75.20;;;;;;4193910;28;20044;-60
2023/08/27 10:50:48;;;;;;;1.65;1.30;;;30.90;75.10;;;;;;4204104;28;20082;-60
2023/08/27 10:53:08;;;;;;;2.38;1.30;;;31.00;74.30;;;;;;4203246;28;20082;-60
2023/08/27 10:55:37;;;;;;;1.17;1.17;;;31.30;75.70;;;;;;4194417;28;20103;-60
2023/08/27 10:58:22;;;;;;;1.08;1.08;;;31.40;74.50;;;;;;4198541;28;20116;-60
2023/08/27 11:01:02;;;;;;;3.58;1.40;;;31.20;73.70;;;;;;4201951;28;20055;-59
2023/08/27 11:03:22;;;;;;;2.58;1.50;;;31.30;75.00;;;;;;4195461;28;20220;-60
2023/08/27 11:05:42;;;;;;;1.33;1.10;;;31.40;74.20;;;;;;4200314;28;20212;-59
2023/08/27 11:08:14;;;;;;;4.30;1.50;;;31.50;73.20;;;;;;4205735;28;20052;-59
2023/08/27 11:10:38;;;;;;;3.95;1.75;;;31.00;73.40;;;;;;4194440;28;20052;-59
2023/08/27 11:12:58;;;;;;;1.83;1.40;;;31.10;73.40;;;;;;4191517;28;20052;-60
2023/08/27 11:15:24;;;;;;;6.93;1.63;;;31.40;73.10;;;;;;4205943;28;20139;-59
2023/08/27 11:17:45;;;;;;;1.90;1.20;;;31.40;73.90;;;;;;4195495;28;20043;-59
2023/08/27 11:20:25;;;;;;;4.97;1.20;;;31.40;74.20;;;;;;4193588;28;20048;-60
2023/08/27 11:22:59;;;;;;;3.38;1.50;;;31.20;74.70;;;;;;4202009;28;20356;-60
2023/08/27 11:25:19;;;;;;;1.83;1.60;;;31.30;73.40;;;;;;4200454;28;20083;-60
2023/08/27 11:27:40;;;;;;;2.00;1.40;;;31.70;72.90;;;;;;4196277;28;20090;-60
2023/08/27 11:30:00;;;;;;;1.85;1.20;;;31.90;73.20;;;;;;4201908;28;20091;-59
2023/08/27 11:32:21;;;;;;;1.15;1.13;;;32.20;73.30;;;;;;4203683;28;20264;-59
2023/08/27 11:34:46;;;;;;;2.13;1.27;;;32.50;72.30;;;;;;4197244;28;20055;-60
2023/08/27 11:37:07;;;;;;;1.92;1.60;;;32.40;73.70;;;;;;4197761;28;20082;-60
2023/08/27 11:39:28;;;;;;;2.78;1.05;;;32.80;72.80;;;;;;4205166;28;20078;-60
2023/08/27 11:41:48;;;;;;;1.85;1.10;;;32.00;71.70;;;;;;4195727;28;20052;-60
2023/08/27 11:44:13;;;;;;;3.92;1.38;;;31.80;72.00;;;;;;4195553;28;20248;-59
2023/08/27 11:46:34;;;;;;;1.10;1.10;;;32.00;71.70;;;;;;4200202;28;20102;-60
2023/08/27 11:48:53;;;;;;;1.20;1.10;;;32.20;72.20;;;;;;4203217;28;20118;-59
2023/08/27 11:51:17;;;;;;;1.98;1.00;;;32.10;70.60;;;;;;4195977;28;20051;-59
2023/08/27 11:53:38;;;;;;;3.28;1.10;;;32.20;72.00;;;;;;4201763;28;20095;-60
2023/08/27 11:55:58;;;;;;;1.00;1.00;;;32.40;71.60;;;;;;4190849;28;20055;-59
2023/08/27 11:58:19;;;;;;;2.90;1.42;;;32.40;71.10;;;;;;4197643;28;20108;-59
2023/08/27 12:00:43;;;;;;;1.53;1.03;;;33.00;73.00;;;;;;4199446;28;20043;-60
2023/08/27 12:03:03;;;;;;;0.90;0.90;;;33.20;71.20;;;;;;4202890;28;20056;-60
2023/08/27 12:05:27;;;;;;;1.10;1.10;;;32.90;71.20;;;;;;4197945;28;20089;-60
2023/08/27 12:07:47;;;;;;;1.13;0.90;;;32.70;71.80;;;;;;4195491;28;20083;-60
2023/08/27 12:10:08;;;;;;;1.00;1.00;;;32.80;69.80;;;;;;4196572;28;20055;-61
2023/08/27 12:12:28;;;;;;;1.15;1.05;;;32.70;70.80;;;;;;4206082;28;20082;-60
2023/08/27 12:14:52;;;;;;;1.65;1.00;;;32.30;70.80;;;;;;4196394;28;20043;-59
2023/08/27 12:17:12;;;;;;;2.33;1.00;;;32.40;70.00;;;;;;4200461;28;20089;-59